createdAt,value
2019-02-17T00:00:53.417Z,4.50
2019-02-17T00:01:30.253Z,4.50
2019-02-17T00:02:05.041Z,4.50
2019-02-17T00:02:38.215Z,4.60
2019-02-17T00:03:11.026Z,4.60
2019-02-17T00:03:43.479Z,4.60
2019-02-17T00:04:15.951Z,4.60
2019-02-17T00:04:48.754Z,4.60
2019-02-17T00:05:21.592Z,4.60
2019-02-17T00:05:54.783Z,4.60
2019-02-17T00:06:27.255Z,4.60
2019-02-17T00:07:00.404Z,4.70
2019-02-17T00:07:32.902Z,4.60
2019-02-17T00:08:05.933Z,4.70
2019-02-17T00:08:38.400Z,4.70
2019-02-17T00:09:13.070Z,4.60
2019-02-17T00:09:46.291Z,4.60
2019-02-17T00:10:18.737Z,4.60
2019-02-17T00:10:51.204Z,4.60
2019-02-17T00:11:23.672Z,4.60
2019-02-17T00:11:56.133Z,4.60
2019-02-17T00:12:28.609Z,4.50
2019-02-17T00:13:01.093Z,4.50
2019-02-17T00:13:33.537Z,4.50
2019-02-17T00:14:05.990Z,4.50
2019-02-17T00:14:38.471Z,4.40
2019-02-17T00:15:10.937Z,4.40
2019-02-17T00:15:43.400Z,4.40
2019-02-17T00:16:16.209Z,4.40
2019-02-17T00:16:48.971Z,4.30
2019-02-17T00:17:21.415Z,4.40
2019-02-17T00:17:54.278Z,4.30
2019-02-17T00:18:26.758Z,4.30
2019-02-17T00:18:59.232Z,4.30
2019-02-17T00:19:32.004Z,4.30
2019-02-17T00:20:04.680Z,4.30
2019-02-17T00:20:37.534Z,4.30
2019-02-17T00:21:10.014Z,4.30
2019-02-17T00:21:42.480Z,4.30
2019-02-17T00:22:14.959Z,4.40
2019-02-17T00:22:47.436Z,4.30
2019-02-17T00:23:20.246Z,4.30
2019-02-17T00:23:53.106Z,4.30
2019-02-17T00:24:26.227Z,4.40
2019-02-17T00:24:58.961Z,4.40
2019-02-17T00:25:31.797Z,4.40
2019-02-17T00:26:04.251Z,4.40
2019-02-17T00:26:37.018Z,4.40
2019-02-17T00:27:09.489Z,4.40
2019-02-17T00:27:41.967Z,4.30
2019-02-17T00:28:14.713Z,4.40
2019-02-17T00:28:47.526Z,4.40
2019-02-17T00:29:20.031Z,4.40
2019-02-17T00:29:52.491Z,4.40
2019-02-17T00:30:24.967Z,4.50
2019-02-17T00:30:57.459Z,4.50
2019-02-17T00:31:29.927Z,4.40
2019-02-17T00:32:02.380Z,4.40
2019-02-17T00:32:34.976Z,4.40
2019-02-17T00:33:07.744Z,4.40
2019-02-17T00:33:40.210Z,4.40
2019-02-17T00:34:13.810Z,4.40
2019-02-17T00:34:46.402Z,4.40
2019-02-17T00:35:19.135Z,4.40
2019-02-17T00:35:51.603Z,4.40
2019-02-17T00:36:24.077Z,4.40
2019-02-17T00:36:56.544Z,4.40
2019-02-17T00:37:29.350Z,4.40
2019-02-17T00:38:01.827Z,4.40
2019-02-17T00:38:34.293Z,4.40
2019-02-17T00:39:06.782Z,4.40
2019-02-17T00:39:40.327Z,4.40
2019-02-17T00:40:12.836Z,4.50
2019-02-17T00:40:45.307Z,4.50
2019-02-17T00:41:17.775Z,4.50
2019-02-17T00:41:50.883Z,4.50
2019-02-17T00:42:23.710Z,4.50
2019-02-17T00:42:56.517Z,4.50
2019-02-17T00:43:29.708Z,4.50
2019-02-17T00:44:02.167Z,4.50
2019-02-17T00:44:34.986Z,4.50
2019-02-17T00:45:07.905Z,4.50
2019-02-17T00:45:40.774Z,4.50
2019-02-17T00:46:13.534Z,4.40
2019-02-17T00:46:45.995Z,4.40
2019-02-17T00:47:18.762Z,4.40
2019-02-17T00:47:51.231Z,4.40
2019-02-17T00:48:24.011Z,4.30
2019-02-17T00:48:56.762Z,4.30
2019-02-17T00:49:29.530Z,4.40
2019-02-17T00:50:01.994Z,4.30
2019-02-17T00:50:34.467Z,4.40
2019-02-17T00:51:06.963Z,4.30
2019-02-17T00:51:39.732Z,4.30
2019-02-17T00:52:12.651Z,4.40
2019-02-17T00:52:45.113Z,4.40
2019-02-17T00:53:17.580Z,4.40
2019-02-17T00:53:50.332Z,4.40
2019-02-17T00:54:22.793Z,4.40
2019-02-17T00:54:55.569Z,4.40
2019-02-17T00:55:28.033Z,4.40
2019-02-17T00:56:00.493Z,4.40
2019-02-17T00:56:33.278Z,4.40
2019-02-17T00:57:06.135Z,4.50
2019-02-17T00:57:38.651Z,4.50
2019-02-17T00:58:11.255Z,4.40
2019-02-17T00:58:43.700Z,4.40
2019-02-17T00:59:16.195Z,4.50
2019-02-17T00:59:48.690Z,4.50
2019-02-17T01:00:21.156Z,4.50
2019-02-17T01:00:53.627Z,4.50
2019-02-17T01:01:26.095Z,4.40
2019-02-17T01:01:58.600Z,4.50
2019-02-17T01:02:31.769Z,4.50
2019-02-17T01:03:04.314Z,4.50
2019-02-17T01:03:36.783Z,4.50
2019-02-17T01:04:09.875Z,4.60
2019-02-17T01:04:42.338Z,4.60
2019-02-17T01:05:14.819Z,4.60
2019-02-17T01:05:48.383Z,4.60
2019-02-17T01:06:20.909Z,4.70
2019-02-17T01:06:53.299Z,4.70
2019-02-17T01:07:25.784Z,4.70
2019-02-17T01:07:59.076Z,4.70
2019-02-17T01:08:31.545Z,4.70
2019-02-17T01:09:05.109Z,4.80
2019-02-17T01:09:38.304Z,4.80
2019-02-17T01:10:10.780Z,4.80
2019-02-17T01:10:43.251Z,4.90
2019-02-17T01:11:15.753Z,4.90
2019-02-17T01:11:48.936Z,4.90
2019-02-17T01:12:21.385Z,4.90
2019-02-17T01:12:53.895Z,5.00
2019-02-17T01:13:27.045Z,5.00
2019-02-17T01:13:59.527Z,5.00
2019-02-17T01:14:32.367Z,5.00
2019-02-17T01:15:06.186Z,5.00
2019-02-17T01:15:38.971Z,5.10
2019-02-17T01:16:11.455Z,5.00
2019-02-17T01:16:43.921Z,5.10
2019-02-17T01:17:16.873Z,5.10
2019-02-17T01:17:49.342Z,5.10
2019-02-17T01:18:21.822Z,5.10
2019-02-17T01:18:54.792Z,5.10
2019-02-17T01:19:27.242Z,5.10
2019-02-17T01:20:00.035Z,5.10
2019-02-17T01:20:32.609Z,5.10
2019-02-17T01:21:05.399Z,5.10
2019-02-17T01:21:37.882Z,5.10
2019-02-17T01:22:11.043Z,5.10
2019-02-17T01:22:44.182Z,5.10
2019-02-17T01:23:16.660Z,5.10
2019-02-17T01:23:49.438Z,5.10
2019-02-17T01:24:21.902Z,5.10
2019-02-17T01:24:54.376Z,5.10
2019-02-17T01:25:26.835Z,5.10
2019-02-17T01:25:59.936Z,5.10
2019-02-17T01:26:32.410Z,5.10
2019-02-17T01:27:04.865Z,5.10
2019-02-17T01:27:37.329Z,5.00
2019-02-17T01:28:09.797Z,5.00
2019-02-17T01:28:42.601Z,5.00
2019-02-17T01:29:20.414Z,4.90
2019-02-17T01:29:49.751Z,4.90
2019-02-17T01:30:22.535Z,4.90
2019-02-17T01:30:54.993Z,4.90
2019-02-17T01:31:27.813Z,4.80
2019-02-17T01:32:00.276Z,4.90
2019-02-17T01:32:33.097Z,4.80
2019-02-17T01:33:05.850Z,4.80
2019-02-17T01:33:38.310Z,4.70
2019-02-17T01:34:10.917Z,4.70
2019-02-17T01:34:43.415Z,4.70
2019-02-17T01:35:15.887Z,4.70
2019-02-17T01:35:48.342Z,4.70
2019-02-17T01:36:20.799Z,4.70
2019-02-17T01:36:53.266Z,4.70
2019-02-17T01:37:26.064Z,4.70
2019-02-17T01:37:59.092Z,4.70
2019-02-17T01:38:31.541Z,4.70
2019-02-17T01:39:05.715Z,4.70
2019-02-17T01:39:38.169Z,4.70
2019-02-17T01:40:11.462Z,4.70
2019-02-17T01:40:43.925Z,4.70
2019-02-17T01:41:16.505Z,4.70
2019-02-17T01:41:48.973Z,4.70
2019-02-17T01:42:21.663Z,4.70
2019-02-17T01:42:54.128Z,4.70
2019-02-17T01:43:26.602Z,4.80
2019-02-17T01:43:59.072Z,4.70
2019-02-17T01:44:31.521Z,4.70
2019-02-17T01:45:05.401Z,4.70
2019-02-17T01:45:37.906Z,4.70
2019-02-17T01:46:10.399Z,4.70
2019-02-17T01:46:42.862Z,4.70
2019-02-17T01:47:15.318Z,4.60
2019-02-17T01:47:48.164Z,4.60
2019-02-17T01:48:20.633Z,4.60
2019-02-17T01:48:53.096Z,4.60
2019-02-17T01:49:25.554Z,4.60
2019-02-17T01:49:58.426Z,4.70
2019-02-17T01:50:30.880Z,4.70
2019-02-17T01:51:03.732Z,4.70
2019-02-17T01:51:36.190Z,4.70
2019-02-17T01:52:08.660Z,4.60
2019-02-17T01:52:41.140Z,4.60
2019-02-17T01:53:13.966Z,4.60
2019-02-17T01:53:46.447Z,4.60
2019-02-17T01:54:18.906Z,4.70
2019-02-17T01:54:51.746Z,4.60
2019-02-17T01:55:24.350Z,4.60
2019-02-17T01:55:56.814Z,4.60
2019-02-17T01:56:29.298Z,4.60
2019-02-17T01:57:02.525Z,4.60
2019-02-17T01:57:34.988Z,4.60
2019-02-17T01:58:07.847Z,4.60
2019-02-17T01:58:40.660Z,4.60
2019-02-17T01:59:13.136Z,4.60
2019-02-17T01:59:45.602Z,4.60
2019-02-17T02:00:18.045Z,4.50
2019-02-17T02:00:50.805Z,4.60
2019-02-17T02:01:23.266Z,4.50
2019-02-17T02:01:55.770Z,4.50
2019-02-17T02:02:28.263Z,4.50
2019-02-17T02:03:00.721Z,4.50
2019-02-17T02:03:33.483Z,4.50
2019-02-17T02:04:05.948Z,4.50
2019-02-17T02:04:38.403Z,4.50
2019-02-17T02:05:10.896Z,4.50
2019-02-17T02:05:43.363Z,4.50
2019-02-17T02:06:15.846Z,4.50
2019-02-17T02:06:48.323Z,4.50
2019-02-17T02:07:20.910Z,4.50
2019-02-17T02:07:53.358Z,4.50
2019-02-17T02:08:26.138Z,4.50
2019-02-17T02:08:58.604Z,4.50
2019-02-17T02:09:31.373Z,4.50
2019-02-17T02:10:04.414Z,4.50
2019-02-17T02:10:36.884Z,4.50
2019-02-17T02:11:09.345Z,4.50
2019-02-17T02:11:42.138Z,4.50
2019-02-17T02:12:14.598Z,4.50
2019-02-17T02:12:47.095Z,4.50
2019-02-17T02:13:19.559Z,4.50
2019-02-17T02:13:52.009Z,4.50
2019-02-17T02:14:24.466Z,4.50
2019-02-17T02:14:56.953Z,4.50
2019-02-17T02:15:29.419Z,4.50
2019-02-17T02:16:01.870Z,4.60
2019-02-17T02:16:34.332Z,4.50
2019-02-17T02:17:06.800Z,4.50
2019-02-17T02:17:39.466Z,4.50
2019-02-17T02:18:11.957Z,4.50
2019-02-17T02:18:44.416Z,4.50
2019-02-17T02:19:16.881Z,4.50
2019-02-17T02:19:49.356Z,4.50
2019-02-17T02:20:22.117Z,4.60
2019-02-17T02:20:54.940Z,4.60
2019-02-17T02:21:27.400Z,4.60
2019-02-17T02:21:59.855Z,4.60
2019-02-17T02:22:32.323Z,4.60
2019-02-17T02:23:04.796Z,4.70
2019-02-17T02:23:37.397Z,4.70
2019-02-17T02:24:09.876Z,4.70
2019-02-17T02:24:42.668Z,4.70
2019-02-17T02:25:15.114Z,4.70
2019-02-17T02:25:47.578Z,4.70
2019-02-17T02:26:20.392Z,4.80
2019-02-17T02:26:53.141Z,4.70
2019-02-17T02:27:25.610Z,4.70
2019-02-17T02:27:58.088Z,4.70
2019-02-17T02:28:30.750Z,4.70
2019-02-17T02:29:03.575Z,4.70
2019-02-17T02:29:40.972Z,4.70
2019-02-17T02:30:11.157Z,4.70
2019-02-17T02:30:43.617Z,4.70
2019-02-17T02:31:16.094Z,4.70
2019-02-17T02:31:48.545Z,4.70
2019-02-17T02:32:21.015Z,4.70
2019-02-17T02:32:53.858Z,4.70
2019-02-17T02:33:26.321Z,4.70
2019-02-17T02:33:59.526Z,4.70
2019-02-17T02:34:32.359Z,4.70
2019-02-17T02:35:05.858Z,4.70
2019-02-17T02:35:38.354Z,4.70
2019-02-17T02:36:11.109Z,4.70
2019-02-17T02:36:43.945Z,4.70
2019-02-17T02:37:16.411Z,4.70
2019-02-17T02:37:48.875Z,4.60
2019-02-17T02:38:21.344Z,4.70
2019-02-17T02:38:53.811Z,4.70
2019-02-17T02:39:26.967Z,4.60
2019-02-17T02:39:59.480Z,4.60
2019-02-17T02:40:32.209Z,4.60
2019-02-17T02:41:04.674Z,4.60
2019-02-17T02:41:37.158Z,4.60
2019-02-17T02:42:09.631Z,4.60
2019-02-17T02:42:42.097Z,4.50
2019-02-17T02:43:14.952Z,4.60
2019-02-17T02:43:47.732Z,4.60
2019-02-17T02:44:20.190Z,4.50
2019-02-17T02:44:53.011Z,4.50
2019-02-17T02:45:25.502Z,4.50
2019-02-17T02:45:58.289Z,4.50
2019-02-17T02:46:30.899Z,4.50
2019-02-17T02:47:03.363Z,4.50
2019-02-17T02:47:36.172Z,4.50
2019-02-17T02:48:08.899Z,4.50
2019-02-17T02:48:41.368Z,4.50
2019-02-17T02:49:14.303Z,4.50
2019-02-17T02:49:46.770Z,4.50
2019-02-17T02:50:19.240Z,4.40
2019-02-17T02:50:53.245Z,4.40
2019-02-17T02:51:25.891Z,4.40
2019-02-17T02:51:58.739Z,4.40
2019-02-17T02:52:31.558Z,4.40
2019-02-17T02:53:04.008Z,4.40
2019-02-17T02:53:36.872Z,4.40
2019-02-17T02:54:09.450Z,4.30
2019-02-17T02:54:41.911Z,4.30
2019-02-17T02:55:14.693Z,4.30
2019-02-17T02:55:47.171Z,4.30
2019-02-17T02:56:19.663Z,4.30
2019-02-17T02:56:52.143Z,4.30
2019-02-17T02:57:25.007Z,4.30
2019-02-17T02:57:57.817Z,4.30
2019-02-17T02:58:30.274Z,4.20
2019-02-17T02:59:02.731Z,4.20
2019-02-17T02:59:35.509Z,4.20
2019-02-17T03:00:09.407Z,4.20
2019-02-17T03:00:42.764Z,4.10
2019-02-17T03:01:15.617Z,4.10
2019-02-17T03:01:48.102Z,4.10
2019-02-17T03:02:20.926Z,4.10
2019-02-17T03:02:53.386Z,4.00
2019-02-17T03:03:25.841Z,4.10
2019-02-17T03:03:58.446Z,4.00
2019-02-17T03:04:31.584Z,4.00
2019-02-17T03:05:04.564Z,4.00
2019-02-17T03:05:40.187Z,4.00
2019-02-17T03:06:35.747Z,4.00
2019-02-17T03:07:11.890Z,4.00
2019-02-17T03:07:44.461Z,3.90
2019-02-17T03:08:17.319Z,3.90
2019-02-17T03:08:50.088Z,3.90
2019-02-17T03:09:22.960Z,3.90
2019-02-17T03:09:55.509Z,3.90
2019-02-17T03:10:28.334Z,3.90
2019-02-17T03:11:01.153Z,3.90
2019-02-17T03:11:33.614Z,3.90
2019-02-17T03:12:06.483Z,3.90
2019-02-17T03:12:39.662Z,3.90
2019-02-17T03:13:12.427Z,3.90
2019-02-17T03:13:44.900Z,3.90
2019-02-17T03:14:17.427Z,3.90
2019-02-17T03:14:49.903Z,3.90
2019-02-17T03:15:22.365Z,3.90
2019-02-17T03:15:55.184Z,3.90
2019-02-17T03:16:27.626Z,3.90
2019-02-17T03:17:00.874Z,3.90
2019-02-17T03:17:33.476Z,3.80
2019-02-17T03:18:05.977Z,3.80
2019-02-17T03:18:38.456Z,3.80
2019-02-17T03:19:11.247Z,3.80
2019-02-17T03:19:44.051Z,3.80
2019-02-17T03:20:16.921Z,3.80
2019-02-17T03:20:49.749Z,3.80
2019-02-17T03:21:22.534Z,3.80
2019-02-17T03:21:54.995Z,3.80
2019-02-17T03:22:27.445Z,3.80
2019-02-17T03:22:59.920Z,3.80
2019-02-17T03:23:33.092Z,3.80
2019-02-17T03:24:05.551Z,3.70
2019-02-17T03:24:38.363Z,3.70
2019-02-17T03:25:10.829Z,3.70
2019-02-17T03:25:45.099Z,3.70
2019-02-17T03:26:17.581Z,3.70
2019-02-17T03:26:50.060Z,3.70
2019-02-17T03:27:24.096Z,3.70
2019-02-17T03:27:56.545Z,3.60
2019-02-17T03:28:29.610Z,3.60
2019-02-17T03:29:02.129Z,3.60
2019-02-17T03:29:34.570Z,3.60
2019-02-17T03:30:07.486Z,3.60
2019-02-17T03:30:39.939Z,3.60
2019-02-17T03:31:12.764Z,3.60
2019-02-17T03:31:45.232Z,3.60
2019-02-17T03:32:17.707Z,3.50
2019-02-17T03:32:50.549Z,3.50
2019-02-17T03:33:23.016Z,3.50
2019-02-17T03:33:55.623Z,3.60
2019-02-17T03:34:28.382Z,3.50
2019-02-17T03:35:01.208Z,3.50
2019-02-17T03:35:33.990Z,3.50
2019-02-17T03:36:06.431Z,3.50
2019-02-17T03:36:38.890Z,3.50
2019-02-17T03:37:11.348Z,3.50
2019-02-17T03:37:43.834Z,3.50
2019-02-17T03:38:16.312Z,3.40
2019-02-17T03:38:48.767Z,3.50
2019-02-17T03:39:21.516Z,3.50
2019-02-17T03:39:54.018Z,3.50
2019-02-17T03:40:26.784Z,3.50
2019-02-17T03:40:59.358Z,3.50
2019-02-17T03:41:32.265Z,3.50
2019-02-17T03:42:04.740Z,3.50
2019-02-17T03:42:37.511Z,3.50
2019-02-17T03:43:10.781Z,3.60
2019-02-17T03:43:43.271Z,3.50
2019-02-17T03:44:15.756Z,3.60
2019-02-17T03:44:48.536Z,3.60
2019-02-17T03:45:21.024Z,3.50
2019-02-17T03:45:53.473Z,3.50
2019-02-17T03:46:25.943Z,3.50
2019-02-17T03:46:58.404Z,3.50
2019-02-17T03:47:30.871Z,3.60
2019-02-17T03:48:03.321Z,3.50
2019-02-17T03:48:35.787Z,3.50
2019-02-17T03:49:08.239Z,3.50
2019-02-17T03:49:40.716Z,3.60
2019-02-17T03:50:13.184Z,3.50
2019-02-17T03:50:45.681Z,3.50
2019-02-17T03:51:18.158Z,3.50
2019-02-17T03:51:50.631Z,3.60
2019-02-17T03:52:23.115Z,3.60
2019-02-17T03:52:55.589Z,3.60
2019-02-17T03:53:28.422Z,3.60
2019-02-17T03:54:00.892Z,3.60
2019-02-17T03:54:33.354Z,3.60
2019-02-17T03:55:05.934Z,3.60
2019-02-17T03:55:38.387Z,3.60
2019-02-17T03:56:11.176Z,3.60
2019-02-17T03:56:43.651Z,3.60
2019-02-17T03:57:16.114Z,3.60
2019-02-17T03:57:48.589Z,3.60
2019-02-17T03:58:21.067Z,3.60
2019-02-17T03:58:53.544Z,3.70
2019-02-17T03:59:26.026Z,3.70
2019-02-17T03:59:58.495Z,3.70
2019-02-17T04:00:30.965Z,3.70
2019-02-17T04:01:03.444Z,3.70
2019-02-17T04:01:35.963Z,3.70
2019-02-17T04:02:08.439Z,3.70
2019-02-17T04:02:40.923Z,3.80
2019-02-17T04:03:13.392Z,3.80
2019-02-17T04:03:46.139Z,3.80
2019-02-17T04:04:18.610Z,3.90
2019-02-17T04:04:51.110Z,3.90
2019-02-17T04:05:23.569Z,3.90
2019-02-17T04:05:56.066Z,3.90
2019-02-17T04:06:28.972Z,3.90
2019-02-17T04:07:01.515Z,3.90
2019-02-17T04:07:33.995Z,3.90
2019-02-17T04:08:06.551Z,3.90
2019-02-17T04:08:39.023Z,3.90
2019-02-17T04:09:11.482Z,3.90
2019-02-17T04:09:43.969Z,3.90
2019-02-17T04:10:16.451Z,3.90
2019-02-17T04:10:48.923Z,3.90
2019-02-17T04:11:21.960Z,3.90
2019-02-17T04:11:54.441Z,3.90
2019-02-17T04:12:26.951Z,3.90
2019-02-17T04:12:59.430Z,3.90
2019-02-17T04:13:31.901Z,3.80
2019-02-17T04:14:04.369Z,3.80
2019-02-17T04:14:37.142Z,3.90
2019-02-17T04:15:09.620Z,3.90
2019-02-17T04:15:42.473Z,3.90
2019-02-17T04:16:15.096Z,3.80
2019-02-17T04:16:47.554Z,3.80
2019-02-17T04:17:20.713Z,3.90
2019-02-17T04:17:53.203Z,3.90
2019-02-17T04:18:25.668Z,3.80
2019-02-17T04:18:58.251Z,3.90
2019-02-17T04:19:31.069Z,3.90
2019-02-17T04:20:03.896Z,3.90
2019-02-17T04:20:36.642Z,3.90
2019-02-17T04:21:09.742Z,3.90
2019-02-17T04:21:43.072Z,3.90
2019-02-17T04:22:15.539Z,3.90
2019-02-17T04:22:48.024Z,3.90
2019-02-17T04:23:30.862Z,3.90
2019-02-17T04:23:54.798Z,3.90
2019-02-17T04:24:27.683Z,3.90
2019-02-17T04:25:00.463Z,3.90
2019-02-17T04:25:33.081Z,3.90
2019-02-17T04:26:05.557Z,3.90
2019-02-17T04:26:38.026Z,4.00
2019-02-17T04:27:10.642Z,4.00
2019-02-17T04:27:43.388Z,4.00
2019-02-17T04:28:15.873Z,4.00
2019-02-17T04:28:49.110Z,4.00
2019-02-17T04:29:21.605Z,4.00
2019-02-17T04:29:54.077Z,4.00
2019-02-17T04:30:29.573Z,4.00
2019-02-17T04:31:00.819Z,4.00
2019-02-17T04:31:33.323Z,4.00
2019-02-17T04:32:06.061Z,4.00
2019-02-17T04:32:38.557Z,4.00
2019-02-17T04:33:11.294Z,4.00
2019-02-17T04:33:43.772Z,4.00
2019-02-17T04:34:16.267Z,4.00
2019-02-17T04:34:48.744Z,4.00
2019-02-17T04:35:21.491Z,4.00
2019-02-17T04:35:53.984Z,4.10
2019-02-17T04:36:26.423Z,4.00
2019-02-17T04:36:59.018Z,4.10
2019-02-17T04:37:31.499Z,4.10
2019-02-17T04:38:04.259Z,4.10
2019-02-17T04:38:36.735Z,4.10
2019-02-17T04:39:09.205Z,4.10
2019-02-17T04:39:41.834Z,4.10
2019-02-17T04:40:14.611Z,4.10
2019-02-17T04:40:47.091Z,4.10
2019-02-17T04:41:19.569Z,4.10
2019-02-17T04:41:52.439Z,4.10
2019-02-17T04:42:25.759Z,4.10
2019-02-17T04:42:58.236Z,4.10
2019-02-17T04:43:30.848Z,4.20
2019-02-17T04:44:03.678Z,4.20
2019-02-17T04:44:36.146Z,4.20
2019-02-17T04:45:08.963Z,4.20
2019-02-17T04:45:41.694Z,4.20
2019-02-17T04:46:14.183Z,4.10
2019-02-17T04:46:46.666Z,4.10
2019-02-17T04:47:19.146Z,4.10
2019-02-17T04:47:51.626Z,4.10
2019-02-17T04:48:24.090Z,4.20
2019-02-17T04:48:56.928Z,4.20
2019-02-17T04:49:29.411Z,4.20
2019-02-17T04:50:01.901Z,4.20
2019-02-17T04:50:34.790Z,4.10
2019-02-17T04:51:07.268Z,4.20
2019-02-17T04:51:39.780Z,4.20
2019-02-17T04:52:12.580Z,4.20
2019-02-17T04:52:45.058Z,4.20
2019-02-17T04:53:17.539Z,4.20
2019-02-17T04:53:50.019Z,4.20
2019-02-17T04:54:22.524Z,4.20
2019-02-17T04:54:55.428Z,4.20
2019-02-17T04:55:28.262Z,4.20
2019-02-17T04:56:00.770Z,4.20
2019-02-17T04:56:33.690Z,4.20
2019-02-17T04:57:07.121Z,4.20
2019-02-17T04:57:39.616Z,4.20
2019-02-17T04:58:12.098Z,4.20
2019-02-17T04:58:44.566Z,4.20
2019-02-17T04:59:17.041Z,4.20
2019-02-17T04:59:49.793Z,4.20
2019-02-17T05:00:22.421Z,4.20
2019-02-17T05:00:54.914Z,4.10
2019-02-17T05:01:27.425Z,4.20
2019-02-17T05:01:59.908Z,4.20
2019-02-17T05:02:32.667Z,4.20
2019-02-17T05:03:05.741Z,4.20
2019-02-17T05:03:38.587Z,4.20
2019-02-17T05:04:11.074Z,4.20
2019-02-17T05:04:43.559Z,4.20
2019-02-17T05:05:16.387Z,4.20
2019-02-17T05:05:48.872Z,4.20
2019-02-17T05:06:21.748Z,4.20
2019-02-17T05:06:54.681Z,4.20
2019-02-17T05:07:27.496Z,4.20
2019-02-17T05:08:00.017Z,4.20
2019-02-17T05:08:32.821Z,4.20
2019-02-17T05:09:05.656Z,4.20
2019-02-17T05:09:38.123Z,4.20
2019-02-17T05:10:10.609Z,4.30
2019-02-17T05:10:43.093Z,4.30
2019-02-17T05:11:16.397Z,4.20
2019-02-17T05:11:49.201Z,4.20
2019-02-17T05:12:22.051Z,4.20
2019-02-17T05:12:54.603Z,4.20
2019-02-17T05:13:27.078Z,4.20
2019-02-17T05:13:59.556Z,4.10
2019-02-17T05:14:32.330Z,4.10
2019-02-17T05:15:04.889Z,4.10
2019-02-17T05:15:37.665Z,4.10
2019-02-17T05:16:10.387Z,4.10
2019-02-17T05:16:43.179Z,4.10
2019-02-17T05:17:15.666Z,4.10
2019-02-17T05:17:48.172Z,4.10
2019-02-17T05:18:21.327Z,4.10
2019-02-17T05:18:54.460Z,4.10
2019-02-17T05:19:26.926Z,4.00
2019-02-17T05:19:59.423Z,4.00
2019-02-17T05:20:31.916Z,4.00
2019-02-17T05:21:04.412Z,4.00
2019-02-17T05:21:37.194Z,4.00
2019-02-17T05:22:09.671Z,4.00
2019-02-17T05:22:42.607Z,4.00
2019-02-17T05:23:15.566Z,4.00
2019-02-17T05:23:48.041Z,3.90
2019-02-17T05:24:20.519Z,3.90
2019-02-17T05:24:53.002Z,3.90
2019-02-17T05:25:25.823Z,3.90
2019-02-17T05:25:58.293Z,3.90
2019-02-17T05:26:30.808Z,3.90
2019-02-17T05:27:03.963Z,3.90
2019-02-17T05:27:36.430Z,3.90
2019-02-17T05:28:08.912Z,3.90
2019-02-17T05:28:41.432Z,3.90
2019-02-17T05:29:13.924Z,3.90
2019-02-17T05:29:46.380Z,3.80
2019-02-17T05:30:19.159Z,3.90
2019-02-17T05:30:53.132Z,3.90
2019-02-17T05:31:26.211Z,3.80
2019-02-17T05:31:58.692Z,3.80
2019-02-17T05:32:31.162Z,3.80
2019-02-17T05:33:03.938Z,3.80
2019-02-17T05:33:36.395Z,3.70
2019-02-17T05:34:08.907Z,3.70
2019-02-17T05:34:41.370Z,3.70
2019-02-17T05:35:13.870Z,3.80
2019-02-17T05:35:46.744Z,3.80
2019-02-17T05:36:19.230Z,3.70
2019-02-17T05:36:51.713Z,3.70
2019-02-17T05:37:24.470Z,3.70
2019-02-17T05:37:56.960Z,3.70
2019-02-17T05:38:29.727Z,3.60
2019-02-17T05:39:04.094Z,3.60
2019-02-17T05:39:36.994Z,3.60
2019-02-17T05:40:09.480Z,3.60
2019-02-17T05:40:42.223Z,3.60
2019-02-17T05:41:14.695Z,3.60
2019-02-17T05:41:47.531Z,3.60
2019-02-17T05:42:20.314Z,3.50
2019-02-17T05:42:52.772Z,3.50
2019-02-17T05:43:25.247Z,3.50
2019-02-17T05:43:58.006Z,3.50
2019-02-17T05:44:30.768Z,3.50
2019-02-17T05:45:03.660Z,3.40
2019-02-17T05:45:36.133Z,3.40
2019-02-17T05:46:08.600Z,3.40
2019-02-17T05:46:41.078Z,3.40
2019-02-17T05:47:13.551Z,3.40
2019-02-17T05:47:46.370Z,3.40
2019-02-17T05:48:18.842Z,3.30
2019-02-17T05:48:51.338Z,3.30
2019-02-17T05:49:24.099Z,3.30
2019-02-17T05:49:56.994Z,3.30
2019-02-17T05:50:29.769Z,3.30
2019-02-17T05:51:02.254Z,3.20
2019-02-17T05:51:35.172Z,3.20
2019-02-17T05:52:07.648Z,3.20
2019-02-17T05:52:40.119Z,3.20
2019-02-17T05:53:12.943Z,3.20
2019-02-17T05:53:45.786Z,3.20
2019-02-17T05:54:18.250Z,3.20
2019-02-17T05:54:51.113Z,3.20
2019-02-17T05:55:23.941Z,3.10
2019-02-17T05:55:56.457Z,3.10
2019-02-17T05:56:28.948Z,3.10
2019-02-17T05:57:01.718Z,3.10
2019-02-17T05:57:34.527Z,3.10
2019-02-17T05:58:07.406Z,3.10
2019-02-17T05:58:39.882Z,3.10
2019-02-17T05:59:12.661Z,3.10
2019-02-17T05:59:45.134Z,3.00
2019-02-17T06:00:20.073Z,3.00
2019-02-17T06:01:02.998Z,3.10
2019-02-17T06:01:27.156Z,3.10
2019-02-17T06:02:00.280Z,3.10
2019-02-17T06:02:33.443Z,3.20
2019-02-17T06:03:05.910Z,3.10
2019-02-17T06:03:38.386Z,3.10
2019-02-17T06:04:10.861Z,3.10
2019-02-17T06:04:43.340Z,3.20
2019-02-17T06:05:16.130Z,3.20
2019-02-17T06:05:48.904Z,3.20
2019-02-17T06:06:21.380Z,3.20
2019-02-17T06:06:53.892Z,3.20
2019-02-17T06:07:26.698Z,3.10
2019-02-17T06:07:59.179Z,3.10
2019-02-17T06:08:31.945Z,3.10
2019-02-17T06:09:05.115Z,3.10
2019-02-17T06:09:38.061Z,3.10
2019-02-17T06:10:10.903Z,3.10
2019-02-17T06:10:43.377Z,3.10
2019-02-17T06:11:16.200Z,3.10
2019-02-17T06:11:48.683Z,3.10
2019-02-17T06:12:21.181Z,3.10
2019-02-17T06:12:53.670Z,3.10
2019-02-17T06:13:26.154Z,3.10
2019-02-17T06:13:58.673Z,3.00
2019-02-17T06:14:31.149Z,3.10
2019-02-17T06:15:03.737Z,3.00
2019-02-17T06:15:36.327Z,3.00
2019-02-17T06:16:08.804Z,3.00
2019-02-17T06:16:41.706Z,2.90
2019-02-17T06:17:14.458Z,2.90
2019-02-17T06:17:47.265Z,2.80
2019-02-17T06:18:19.740Z,2.80
2019-02-17T06:18:52.589Z,2.80
2019-02-17T06:19:25.478Z,2.80
2019-02-17T06:19:57.939Z,2.80
2019-02-17T06:20:30.439Z,2.80
2019-02-17T06:21:02.915Z,2.80
2019-02-17T06:21:35.680Z,2.80
2019-02-17T06:22:08.250Z,2.80
2019-02-17T06:22:40.740Z,2.70
2019-02-17T06:23:13.246Z,2.70
2019-02-17T06:23:46.395Z,2.70
2019-02-17T06:24:18.900Z,2.70
2019-02-17T06:24:51.697Z,2.70
2019-02-17T06:25:24.176Z,2.70
2019-02-17T06:25:57.086Z,2.70
2019-02-17T06:26:29.556Z,2.70
2019-02-17T06:27:02.043Z,2.60
2019-02-17T06:27:34.570Z,2.60
2019-02-17T06:28:07.487Z,2.60
2019-02-17T06:28:39.997Z,2.60
2019-02-17T06:29:12.633Z,2.70
2019-02-17T06:29:45.120Z,2.70
2019-02-17T06:30:17.602Z,2.80
2019-02-17T06:30:50.100Z,2.80
2019-02-17T06:31:22.587Z,2.80
2019-02-17T06:31:55.075Z,2.70
2019-02-17T06:32:27.564Z,2.70
2019-02-17T06:33:00.436Z,2.70
2019-02-17T06:33:32.907Z,2.70
2019-02-17T06:34:05.428Z,2.70
2019-02-17T06:34:37.919Z,2.70
2019-02-17T06:35:10.401Z,2.70
2019-02-17T06:35:42.871Z,2.70
2019-02-17T06:36:15.335Z,2.80
2019-02-17T06:36:48.078Z,2.70
2019-02-17T06:37:20.583Z,2.80
2019-02-17T06:37:53.064Z,2.80
2019-02-17T06:38:25.814Z,2.80
2019-02-17T06:38:58.305Z,2.80
2019-02-17T06:39:31.278Z,2.70
2019-02-17T06:40:04.404Z,2.70
2019-02-17T06:40:36.896Z,2.70
2019-02-17T06:41:10.124Z,2.60
2019-02-17T06:41:42.886Z,2.70
2019-02-17T06:42:15.370Z,2.70
2019-02-17T06:42:48.235Z,2.70
2019-02-17T06:43:21.007Z,2.70
2019-02-17T06:43:53.504Z,2.60
2019-02-17T06:44:26.291Z,2.60
2019-02-17T06:44:58.805Z,2.70
2019-02-17T06:45:31.550Z,2.60
2019-02-17T06:46:04.125Z,2.70
2019-02-17T06:46:40.994Z,2.70
2019-02-17T06:47:23.907Z,2.80
2019-02-17T06:47:56.658Z,2.80
2019-02-17T06:48:29.135Z,2.90
2019-02-17T06:49:01.636Z,2.90
2019-02-17T06:49:34.107Z,2.90
2019-02-17T06:50:07.894Z,2.90
2019-02-17T06:50:40.362Z,2.90
2019-02-17T06:51:12.851Z,3.00
2019-02-17T06:51:45.636Z,3.00
2019-02-17T06:52:18.090Z,3.00
2019-02-17T06:52:50.713Z,3.00
2019-02-17T06:53:23.183Z,3.00
2019-02-17T06:53:56.047Z,3.10
2019-02-17T06:54:28.808Z,3.10
2019-02-17T06:55:39.268Z,3.10
2019-02-17T06:56:26.898Z,3.10
2019-02-17T06:57:18.891Z,3.20
2019-02-17T06:57:51.362Z,3.20
2019-02-17T06:58:23.830Z,3.20
2019-02-17T06:58:56.326Z,3.20
2019-02-17T06:59:28.814Z,3.20
2019-02-17T07:00:26.722Z,3.20
2019-02-17T07:01:00.958Z,3.20
2019-02-17T07:01:33.446Z,3.10
2019-02-17T07:02:05.936Z,3.20
2019-02-17T07:02:38.743Z,3.20
2019-02-17T07:03:11.222Z,3.20
2019-02-17T07:03:43.730Z,3.10
2019-02-17T07:04:16.304Z,3.00
2019-02-17T07:05:20.628Z,3.00
2019-02-17T07:05:57.847Z,3.00
2019-02-17T07:06:33.806Z,3.00
2019-02-17T07:07:06.623Z,3.10
2019-02-17T07:07:39.111Z,3.00
2019-02-17T07:08:11.558Z,3.10
2019-02-17T07:08:44.130Z,3.10
2019-02-17T07:09:16.607Z,3.00
2019-02-17T07:09:49.125Z,3.00
2019-02-17T07:10:21.900Z,3.10
2019-02-17T07:10:54.779Z,3.10
2019-02-17T07:11:27.277Z,3.10
2019-02-17T07:11:59.802Z,3.10
2019-02-17T07:12:32.283Z,3.10
2019-02-17T07:13:05.135Z,3.10
2019-02-17T07:13:37.899Z,3.10
2019-02-17T07:14:10.383Z,3.10
2019-02-17T07:14:43.210Z,3.00
2019-02-17T07:15:15.690Z,3.10
2019-02-17T07:15:48.178Z,3.10
2019-02-17T07:16:21.923Z,3.10
2019-02-17T07:16:54.397Z,3.10
2019-02-17T07:17:27.207Z,3.10
2019-02-17T07:18:00.439Z,3.10
2019-02-17T07:18:32.916Z,3.10